Time;durP1;ratioP1;P1;durP2;ratioP2;P2;SDS_P1;SDS_P2;PMS_P1;PMS_P2;Temp;Humidity;BMP_temperature;BMP_pressure;BME280_temperature;BME280_humidity;BME280_pressure;Samples;Min_cycle;Max_cycle;Signal;HPM_P1;HPM_P2
2022/08/19 00:01:18;;;;;;;0.00;0.00;;;16.50;99.90;;;;;;5078166;28;20052;-80
2022/08/19 00:03:43;;;;;;;0.00;0.00;;;16.50;99.90;;;;;;5078858;28;20099;-81
2022/08/19 00:06:09;;;;;;;0.00;0.00;;;16.40;99.90;;;;;;5096078;28;20071;-81
2022/08/19 00:08:35;;;;;;;0.08;0.08;;;16.40;99.90;;;;;;5078899;28;20040;-81
2022/08/19 00:11:01;;;;;;;0.00;0.00;;;16.40;99.90;;;;;;5095695;28;20048;-80
2022/08/19 00:13:28;;;;;;;0.00;0.00;;;16.40;99.90;;;;;;5095930;28;20399;-80
2022/08/19 00:15:54;;;;;;;2.17;0.20;;;16.30;99.90;;;;;;5079254;28;20048;-80
2022/08/19 00:18:20;;;;;;;0.00;0.00;;;16.20;99.90;;;;;;5095665;28;20094;-80
2022/08/19 00:20:46;;;;;;;0.00;0.00;;;16.20;99.90;;;;;;5077597;28;20088;-80
2022/08/19 00:23:11;;;;;;;0.00;0.00;;;16.30;99.90;;;;;;5078530;28;20154;-80
2022/08/19 00:25:37;;;;;;;0.00;0.00;;;16.20;99.90;;;;;;5078464;28;20063;-80
2022/08/19 00:28:04;;;;;;;0.00;0.00;;;16.20;99.90;;;;;;5078609;28;20062;-80
2022/08/19 00:30:32;;;;;;;0.00;0.00;;;16.20;99.90;;;;;;5078898;28;20082;-80
2022/08/19 00:32:59;;;;;;;0.00;0.00;;;16.10;99.90;;;;;;5094900;28;20097;-80
2022/08/19 00:35:27;;;;;;;0.00;0.00;;;16.00;99.90;;;;;;5077234;28;20059;-80
2022/08/19 00:37:52;;;;;;;0.00;0.00;;;16.10;99.90;;;;;;5095090;28;20093;-80
2022/08/19 00:40:19;;;;;;;0.00;0.00;;;16.00;99.90;;;;;;5077194;28;20448;-80
2022/08/19 00:42:45;;;;;;;0.05;0.00;;;16.00;99.90;;;;;;5095305;28;20479;-80
2022/08/19 00:45:16;;;;;;;0.00;0.00;;;16.00;99.90;;;;;;5078265;28;20407;-80
2022/08/19 00:47:44;;;;;;;0.00;0.00;;;16.00;99.90;;;;;;5078313;28;20051;-80
2022/08/19 00:50:12;;;;;;;0.00;0.00;;;16.00;99.90;;;;;;5077838;28;20052;-80
2022/08/19 00:52:45;;;;;;;0.00;0.00;;;16.00;99.90;;;;;;5078016;28;20135;-80
2022/08/19 00:55:15;;;;;;;0.00;0.00;;;16.10;99.90;;;;;;5094494;28;20113;-80
2022/08/19 00:57:47;;;;;;;0.00;0.00;;;16.00;99.90;;;;;;5077857;28;20044;-80
2022/08/19 01:00:17;;;;;;;0.00;0.00;;;16.00;99.90;;;;;;5077895;28;20044;-80
2022/08/19 01:02:42;;;;;;;0.00;0.00;;;16.00;99.90;;;;;;5077835;28;20135;-80
2022/08/19 01:05:14;;;;;;;0.00;0.00;;;16.00;99.90;;;;;;5077656;28;20110;-80
2022/08/19 01:07:41;;;;;;;0.00;0.00;;;16.00;99.90;;;;;;5094632;28;20052;-80
2022/08/19 01:10:10;;;;;;;0.00;0.00;;;16.00;99.90;;;;;;5077951;28;20055;-80
2022/08/19 01:12:37;;;;;;;0.00;0.00;;;16.00;99.90;;;;;;5094433;28;20048;-80
2022/08/19 01:15:08;;;;;;;0.00;0.00;;;15.90;99.90;;;;;;5094632;28;20048;-80
2022/08/19 01:17:37;;;;;;;0.00;0.00;;;16.00;99.90;;;;;;5077661;28;20052;-80
2022/08/19 01:20:04;;;;;;;0.05;0.05;;;16.00;99.90;;;;;;5078209;28;20447;-80
2022/08/19 01:22:37;;;;;;;0.08;0.00;;;16.00;99.90;;;;;;5094319;28;20036;-80
2022/08/19 01:25:03;;;;;;;0.00;0.00;;;16.00;99.90;;;;;;5077624;28;20048;-80
2022/08/19 01:27:38;;;;;;;0.00;0.00;;;16.00;99.90;;;;;;5094357;28;20502;-80
2022/08/19 01:30:05;;;;;;;0.00;0.00;;;16.00;99.90;;;;;;5094439;28;20491;-80
2022/08/19 01:32:31;;;;;;;0.00;0.00;;;16.00;99.90;;;;;;5077389;28;20090;-80
2022/08/19 01:34:57;;;;;;;0.00;0.00;;;16.00;99.90;;;;;;5094359;28;20079;-80
2022/08/19 01:37:23;;;;;;;0.10;0.08;;;16.00;99.90;;;;;;5076833;28;20047;-80
2022/08/19 01:39:49;;;;;;;0.45;0.30;;;16.00;99.90;;;;;;5077035;28;20377;-80
2022/08/19 01:42:15;;;;;;;0.22;0.22;;;15.90;99.90;;;;;;5077086;28;20050;-81
2022/08/19 01:44:41;;;;;;;0.00;0.00;;;15.90;99.90;;;;;;5093872;28;20479;-81
2022/08/19 01:47:09;;;;;;;0.00;0.00;;;15.90;99.90;;;;;;5094098;28;20150;-80
2022/08/19 01:49:35;;;;;;;0.28;0.00;;;15.90;99.90;;;;;;5093974;28;20388;-80
2022/08/19 01:52:03;;;;;;;0.00;0.00;;;15.90;99.90;;;;;;5093768;28;20135;-81
2022/08/19 01:54:29;;;;;;;0.00;0.00;;;15.90;99.90;;;;;;5076397;28;20139;-80
2022/08/19 01:57:06;;;;;;;0.00;0.00;;;15.80;99.90;;;;;;5093753;28;20532;-80
2022/08/19 01:59:33;;;;;;;0.00;0.00;;;15.80;99.90;;;;;;5076624;28;20058;-80
2022/08/19 02:01:58;;;;;;;0.00;0.00;;;15.80;99.90;;;;;;5076502;28;20465;-81
2022/08/19 02:04:25;;;;;;;0.00;0.00;;;15.70;99.90;;;;;;5093318;28;20036;-80
2022/08/19 02:06:51;;;;;;;0.32;0.10;;;15.70;99.90;;;;;;5093513;28;20054;-81
2022/08/19 02:09:16;;;;;;;0.00;0.00;;;15.70;99.90;;;;;;5093549;28;20040;-80
2022/08/19 02:11:42;;;;;;;0.00;0.00;;;15.70;99.90;;;;;;5093028;28;20044;-80
2022/08/19 02:14:08;;;;;;;0.00;0.00;;;15.70;99.90;;;;;;5076262;28;20051;-80
2022/08/19 02:16:35;;;;;;;0.20;0.10;;;15.60;99.90;;;;;;5093420;28;20075;-80
2022/08/19 02:19:01;;;;;;;0.00;0.00;;;15.70;99.90;;;;;;5075828;28;20119;-80
2022/08/19 02:21:28;;;;;;;0.00;0.00;;;15.60;99.90;;;;;;5076163;28;20079;-80
2022/08/19 02:23:55;;;;;;;0.00;0.00;;;15.60;99.90;;;;;;5076427;28;20044;-80
2022/08/19 02:26:21;;;;;;;0.30;0.00;;;15.60;99.90;;;;;;5093223;28;20048;-80
2022/08/19 02:28:48;;;;;;;0.10;0.10;;;15.50;99.90;;;;;;5092858;28;20036;-80
2022/08/19 02:31:18;;;;;;;0.00;0.00;;;15.50;99.90;;;;;;5075711;28;20070;-80
2022/08/19 02:33:45;;;;;;;0.00;0.00;;;15.50;99.90;;;;;;5076246;28;20480;-80
2022/08/19 02:36:12;;;;;;;0.17;0.17;;;15.40;99.90;;;;;;5093158;28;20044;-80
2022/08/19 02:38:38;;;;;;;0.22;0.15;;;15.40;99.90;;;;;;5093079;28;20134;-80
2022/08/19 02:41:09;;;;;;;0.00;0.00;;;15.40;99.90;;;;;;5075818;28;20036;-80
2022/08/19 02:43:40;;;;;;;2.15;0.20;;;15.40;99.90;;;;;;5076333;28;20416;-80
2022/08/19 02:46:32;;;;;;;0.10;0.10;;;15.40;99.90;;;;;;5092808;28;20047;-80
2022/08/19 02:49:03;;;;;;;0.00;0.00;;;15.40;99.90;;;;;;5089635;28;20059;-80
2022/08/19 02:51:32;;;;;;;0.00;0.00;;;15.40;99.90;;;;;;5076092;28;20122;-80
2022/08/19 02:53:59;;;;;;;0.00;0.00;;;15.30;99.90;;;;;;5076376;28;20052;-80
2022/08/19 02:56:26;;;;;;;0.32;0.22;;;15.20;99.90;;;;;;5093005;28;20118;-80
2022/08/19 02:58:54;;;;;;;0.00;0.00;;;15.30;99.90;;;;;;5092834;28;20484;-80
2022/08/19 03:01:29;;;;;;;0.00;0.00;;;15.20;99.90;;;;;;5092518;28;20541;-80
2022/08/19 03:03:56;;;;;;;0.00;0.00;;;15.20;99.90;;;;;;5075887;28;20488;-80
2022/08/19 03:06:22;;;;;;;0.00;0.00;;;15.20;99.90;;;;;;5076151;28;20110;-80
2022/08/19 03:08:52;;;;;;;0.25;0.00;;;15.10;99.90;;;;;;5076079;28;20135;-80
2022/08/19 03:11:23;;;;;;;0.00;0.00;;;15.20;99.90;;;;;;5075213;28;20059;-80
2022/08/19 03:13:50;;;;;;;0.00;0.00;;;15.00;99.90;;;;;;5075826;28;20392;-80
2022/08/19 03:16:17;;;;;;;0.00;0.00;;;15.00;99.90;;;;;;5075719;28;20165;-80
2022/08/19 03:18:43;;;;;;;0.00;0.00;;;14.90;99.90;;;;;;5092891;28;20130;-81
2022/08/19 03:21:09;;;;;;;0.00;0.00;;;14.90;99.90;;;;;;5075725;28;20123;-80
2022/08/19 03:23:35;;;;;;;0.00;0.00;;;14.90;99.90;;;;;;5075796;28;20044;-80
2022/08/19 03:26:04;;;;;;;0.00;0.00;;;14.80;99.90;;;;;;5075628;28;20048;-80
2022/08/19 03:28:31;;;;;;;0.00;0.00;;;14.70;99.90;;;;;;5075667;28;20090;-80
2022/08/19 03:30:58;;;;;;;0.00;0.00;;;14.70;99.90;;;;;;5079171;28;20476;-80
2022/08/19 03:33:25;;;;;;;0.00;0.00;;;14.70;99.90;;;;;;5096564;28;20143;-80
2022/08/19 03:36:09;;;;;;;0.00;0.00;;;14.70;99.90;;;;;;5096689;28;20048;-80
2022/08/19 03:38:44;;;;;;;0.00;0.00;;;14.70;99.90;;;;;;5096841;28;20101;-80
2022/08/19 03:41:13;;;;;;;0.05;0.00;;;14.70;99.90;;;;;;5079177;28;20105;-80
2022/08/19 03:43:40;;;;;;;0.00;0.00;;;14.60;99.90;;;;;;5079337;28;20507;-80
2022/08/19 03:46:12;;;;;;;0.00;0.00;;;14.70;99.90;;;;;;5096514;28;20052;-80
2022/08/19 03:48:40;;;;;;;0.00;0.00;;;14.70;99.90;;;;;;5096239;28;20494;-80
2022/08/19 03:51:07;;;;;;;0.00;0.00;;;14.70;99.90;;;;;;5079075;28;20051;-80
2022/08/19 03:53:34;;;;;;;0.00;0.00;;;14.70;99.90;;;;;;5078431;28;20109;-80
2022/08/19 03:56:00;;;;;;;0.00;0.00;;;14.70;99.90;;;;;;5095806;28;20411;-80
2022/08/19 03:58:28;;;;;;;0.00;0.00;;;14.80;99.90;;;;;;5096791;28;20048;-80
2022/08/19 04:00:57;;;;;;;0.00;0.00;;;14.70;99.90;;;;;;5078942;28;20464;-80
2022/08/19 04:03:27;;;;;;;0.00;0.00;;;14.70;99.90;;;;;;5079356;28;20048;-80
2022/08/19 04:05:53;;;;;;;0.00;0.00;;;14.70;99.90;;;;;;5095919;28;20044;-80
2022/08/19 04:08:20;;;;;;;0.00;0.00;;;14.70;99.90;;;;;;5095858;28;20051;-80
2022/08/19 04:10:47;;;;;;;0.25;0.00;;;14.60;99.90;;;;;;5096266;28;20134;-80
2022/08/19 04:13:14;;;;;;;0.00;0.00;;;14.60;99.90;;;;;;5079158;28;20135;-80
2022/08/19 04:15:46;;;;;;;0.00;0.00;;;14.50;99.90;;;;;;5095721;28;20044;-80
2022/08/19 04:18:13;;;;;;;0.00;0.00;;;14.50;99.90;;;;;;5095752;28;20094;-80
2022/08/19 04:20:47;;;;;;;0.00;0.00;;;14.50;99.90;;;;;;5095419;28;20044;-80
2022/08/19 04:23:14;;;;;;;0.40;0.22;;;14.50;99.90;;;;;;5095605;28;20044;-80
2022/08/19 04:25:43;;;;;;;0.00;0.00;;;14.50;99.90;;;;;;5095511;28;20101;-80
2022/08/19 04:28:11;;;;;;;0.00;0.00;;;14.40;99.90;;;;;;5095357;28;20448;-80
2022/08/19 04:30:45;;;;;;;0.05;0.05;;;14.40;99.90;;;;;;5095479;28;20150;-80
2022/08/19 04:33:15;;;;;;;0.15;0.00;;;14.40;99.90;;;;;;5078709;28;20036;-80
2022/08/19 04:35:44;;;;;;;0.00;0.00;;;14.30;99.90;;;;;;5095162;28;20127;-80
2022/08/19 04:38:11;;;;;;;0.00;0.00;;;14.40;99.90;;;;;;5077917;28;20060;-80
2022/08/19 04:43:39;;;;;;;0.00;0.00;;;14.30;99.90;;;;;;5095141;28;20052;-80
2022/08/19 04:46:10;;;;;;;0.00;0.00;;;14.30;99.90;;;;;;5095042;28;20044;-80
2022/08/19 04:48:37;;;;;;;0.00;0.00;;;14.20;99.90;;;;;;5095260;28;20048;-81
2022/08/19 04:51:08;;;;;;;0.00;0.00;;;14.20;99.90;;;;;;5094787;28;20142;-79
2022/08/19 04:53:36;;;;;;;0.00;0.00;;;14.20;99.90;;;;;;5077043;28;20426;-81
2022/08/19 04:56:07;;;;;;;0.00;0.00;;;14.20;99.90;;;;;;5077168;28;20059;-81
2022/08/19 04:58:36;;;;;;;0.00;0.00;;;14.20;99.90;;;;;;5094922;28;20452;-81
2022/08/19 05:01:02;;;;;;;0.00;0.00;;;14.20;99.90;;;;;;5077977;28;20149;-81
2022/08/19 05:03:33;;;;;;;0.00;0.00;;;14.20;99.90;;;;;;5078027;28;20115;-81
2022/08/19 05:06:07;;;;;;;0.00;0.00;;;14.30;99.90;;;;;;5094865;28;20094;-81
2022/08/19 05:08:34;;;;;;;0.00;0.00;;;14.20;99.90;;;;;;5078017;28;20127;-81
2022/08/19 05:10:59;;;;;;;0.00;0.00;;;14.30;99.90;;;;;;5094450;28;20044;-81
2022/08/19 05:13:26;;;;;;;0.00;0.00;;;14.40;99.90;;;;;;5094559;28;20365;-81
2022/08/19 05:15:57;;;;;;;0.60;0.52;;;14.40;99.90;;;;;;5094567;28;20052;-81
2022/08/19 05:23:55;;;;;;;0.00;0.00;;;14.40;99.90;;;;;;5094954;28;20059;-81
2022/08/19 05:26:21;;;;;;;0.00;0.00;;;14.50;99.90;;;;;;5077791;28;20056;-81
2022/08/19 05:28:46;;;;;;;0.00;0.00;;;14.50;99.90;;;;;;5077444;28;20056;-81
2022/08/19 05:31:12;;;;;;;0.00;0.00;;;14.50;99.90;;;;;;5077293;28;20503;-80
2022/08/19 05:33:39;;;;;;;0.00;0.00;;;14.50;99.90;;;;;;5093837;28;20434;-80
2022/08/19 05:36:07;;;;;;;0.00;0.00;;;14.40;99.90;;;;;;5077150;28;20048;-80
2022/08/19 05:38:33;;;;;;;0.00;0.00;;;14.60;99.90;;;;;;5094784;28;20054;-80
2022/08/19 05:40:59;;;;;;;0.10;0.10;;;14.60;99.90;;;;;;5076979;28;20514;-81
2022/08/19 05:43:25;;;;;;;0.00;0.00;;;14.60;99.90;;;;;;5094044;28;20052;-81
2022/08/19 05:45:51;;;;;;;0.00;0.00;;;14.70;99.90;;;;;;5094189;28;20112;-81
2022/08/19 05:48:20;;;;;;;0.00;0.00;;;14.70;99.90;;;;;;5076954;28;20073;-81
2022/08/19 05:50:46;;;;;;;0.10;0.10;;;14.80;99.90;;;;;;5076672;28;20555;-81
2022/08/19 05:53:12;;;;;;;0.00;0.00;;;14.80;99.90;;;;;;5076055;28;20503;-81
2022/08/19 05:55:38;;;;;;;0.00;0.00;;;14.80;99.90;;;;;;5075691;28;20052;-81
2022/08/19 05:58:07;;;;;;;0.00;0.00;;;15.00;99.90;;;;;;5093764;28;20062;-81
2022/08/19 06:00:33;;;;;;;0.00;0.00;;;15.10;99.90;;;;;;5093554;28;20093;-81
2022/08/19 06:03:02;;;;;;;0.00;0.00;;;15.10;99.90;;;;;;5076725;28;20360;-81
2022/08/19 06:05:29;;;;;;;0.00;0.00;;;15.20;99.90;;;;;;5094229;28;20048;-81
2022/08/19 06:07:55;;;;;;;0.00;0.00;;;15.30;99.90;;;;;;5076326;28;20488;-81
2022/08/19 06:10:21;;;;;;;0.20;0.20;;;15.40;99.90;;;;;;5093564;28;20042;-81
2022/08/19 06:12:47;;;;;;;0.00;0.00;;;15.50;99.90;;;;;;5076454;28;20047;-81
2022/08/19 06:15:14;;;;;;;0.00;0.00;;;15.60;99.90;;;;;;5093449;28;20542;-81
2022/08/19 06:17:41;;;;;;;0.00;0.00;;;15.60;99.90;;;;;;5076393;28;20097;-81
2022/08/19 06:20:11;;;;;;;0.35;0.10;;;15.80;99.90;;;;;;5076057;28;20047;-81
2022/08/19 06:22:46;;;;;;;0.10;0.00;;;15.80;99.90;;;;;;5076387;28;20051;-81
2022/08/19 06:25:14;;;;;;;0.00;0.00;;;16.00;99.90;;;;;;5092981;28;20051;-81
2022/08/19 06:27:40;;;;;;;0.45;0.17;;;16.10;99.90;;;;;;5076334;28;20040;-81
2022/08/19 06:30:07;;;;;;;0.15;0.10;;;16.10;99.90;;;;;;5076311;28;20071;-81
2022/08/19 06:32:32;;;;;;;0.03;0.03;;;16.20;99.90;;;;;;5092558;28;20563;-81
2022/08/19 06:34:58;;;;;;;0.20;0.20;;;16.30;99.90;;;;;;5093265;28;20128;-81
2022/08/19 06:37:24;;;;;;;0.63;0.08;;;16.30;99.90;;;;;;5076135;28;20082;-81
2022/08/19 06:39:50;;;;;;;0.00;0.00;;;16.50;99.90;;;;;;5075192;28;20052;-81
2022/08/19 06:42:18;;;;;;;0.00;0.00;;;16.50;99.90;;;;;;5093083;28;20101;-81
2022/08/19 06:44:46;;;;;;;0.32;0.13;;;16.70;99.90;;;;;;5092561;28;20052;-81
2022/08/19 06:47:15;;;;;;;0.00;0.00;;;16.80;99.90;;;;;;5092339;28;20051;-81
2022/08/19 06:49:41;;;;;;;4.47;0.60;;;16.90;99.90;;;;;;5074740;28;20051;-81
2022/08/19 06:52:08;;;;;;;0.08;0.00;;;17.10;99.90;;;;;;5076010;28;20074;-81
2022/08/19 06:54:34;;;;;;;0.00;0.00;;;17.30;99.90;;;;;;5076017;28;20055;-81
2022/08/19 06:57:02;;;;;;;0.00;0.00;;;17.50;99.90;;;;;;5076047;28;20503;-81
2022/08/19 06:59:28;;;;;;;0.10;0.10;;;18.20;99.90;;;;;;5075473;28;20066;-80
2022/08/19 07:01:56;;;;;;;0.00;0.00;;;19.20;99.90;;;;;;5075461;28;20040;-80
2022/08/19 07:04:25;;;;;;;0.00;0.00;;;20.40;99.90;;;;;;5077719;28;20048;-80
2022/08/19 07:06:57;;;;;;;0.00;0.00;;;21.40;99.90;;;;;;5099963;28;20097;-81
2022/08/19 07:09:23;;;;;;;0.20;0.20;;;22.30;99.90;;;;;;5082828;28;20051;-80
2022/08/19 07:11:51;;;;;;;0.05;0.05;;;22.80;99.90;;;;;;5099313;28;20399;-81
2022/08/19 07:14:19;;;;;;;0.00;0.00;;;22.90;99.90;;;;;;5082586;28;20069;-80
2022/08/19 07:16:48;;;;;;;0.13;0.13;;;23.10;99.90;;;;;;5082574;28;20055;-80
2022/08/19 07:19:14;;;;;;;0.10;0.00;;;22.80;99.90;;;;;;5099470;28;20043;-80
2022/08/19 07:21:41;;;;;;;0.10;0.03;;;22.50;99.90;;;;;;5082434;28;20044;-80
2022/08/19 07:24:07;;;;;;;0.57;0.08;;;22.20;99.90;;;;;;5099497;28;20051;-80
2022/08/19 07:26:38;;;;;;;0.00;0.00;;;22.00;99.90;;;;;;5099467;28;20043;-80
2022/08/19 07:29:05;;;;;;;0.10;0.10;;;21.80;99.90;;;;;;5099660;28;20036;-81
2022/08/19 07:31:36;;;;;;;0.00;0.00;;;21.70;99.90;;;;;;5099429;28;20067;-81
2022/08/19 07:34:07;;;;;;;0.10;0.10;;;21.80;99.90;;;;;;5082852;28;20105;-80
2022/08/19 07:36:35;;;;;;;0.30;0.00;;;22.10;99.90;;;;;;5099483;28;20040;-81
2022/08/19 07:39:04;;;;;;;0.08;0.08;;;22.40;99.90;;;;;;5099230;28;20036;-81
2022/08/19 07:41:31;;;;;;;0.40;0.40;;;22.80;99.90;;;;;;5099132;28;20540;-80
2022/08/19 07:44:03;;;;;;;0.00;0.00;;;22.90;99.90;;;;;;5099592;28;20403;-80
2022/08/19 07:46:32;;;;;;;0.30;0.30;;;22.70;99.90;;;;;;5099401;28;20446;-80
2022/08/19 07:48:58;;;;;;;0.15;0.15;;;22.50;99.90;;;;;;5082414;28;20060;-81
2022/08/19 07:51:24;;;;;;;0.00;0.00;;;22.30;99.90;;;;;;5099304;28;20051;-81
2022/08/19 07:53:50;;;;;;;1.50;0.40;;;22.20;99.90;;;;;;5098970;28;20498;-80
2022/08/19 07:56:18;;;;;;;1.83;0.40;;;22.10;99.90;;;;;;5099238;28;20106;-81
2022/08/19 07:58:46;;;;;;;0.20;0.20;;;22.00;99.90;;;;;;5082587;28;20062;-80
2022/08/19 08:01:17;;;;;;;0.00;0.00;;;21.90;99.90;;;;;;5099259;28;20130;-81
2022/08/19 08:09:10;;;;;;;0.10;0.10;;;21.80;99.90;;;;;;5099176;28;20131;-81
2022/08/19 08:09:26;;;;;;;0.00;0.00;;;21.70;99.90;;;;;;5099275;28;20048;-81
2022/08/19 08:12:17;;;;;;;0.10;0.10;;;21.70;99.90;;;;;;5082423;28;20083;-80
2022/08/19 08:14:51;;;;;;;0.25;0.25;;;21.70;99.90;;;;;;5082452;28;20051;-81
2022/08/19 08:17:20;;;;;;;0.08;0.05;;;21.60;99.90;;;;;;5078692;28;20424;-81
2022/08/19 08:19:46;;;;;;;0.22;0.22;;;21.60;99.90;;;;;;5078730;28;20476;-81
2022/08/19 08:25:10;;;;;;;0.00;0.00;;;21.70;99.90;;;;;;5018048;28;20041;-81
2022/08/19 08:27:39;;;;;;;0.10;0.10;;;21.70;99.90;;;;;;5018441;28;20119;-81
2022/08/19 08:30:09;;;;;;;0.00;0.00;;;21.70;99.90;;;;;;5018261;28;20405;-81
2022/08/19 08:32:38;;;;;;;0.00;0.00;;;21.80;99.90;;;;;;5001529;28;20057;-81
2022/08/19 08:35:07;;;;;;;0.00;0.00;;;21.80;99.90;;;;;;5017805;28;20050;-81
2022/08/19 08:37:33;;;;;;;0.00;0.00;;;21.90;99.90;;;;;;5017604;28;20076;-81
2022/08/19 08:40:02;;;;;;;0.00;0.00;;;21.90;99.90;;;;;;5017664;28;20140;-81
2022/08/19 08:42:36;;;;;;;0.00;0.00;;;22.00;99.90;;;;;;5017608;28;20393;-81
2022/08/19 08:45:16;;;;;;;0.00;0.00;;;22.10;99.90;;;;;;5017763;28;20378;-81
2022/08/19 08:47:47;;;;;;;1.55;0.25;;;22.20;99.90;;;;;;5017657;28;20045;-81
2022/08/19 08:50:20;;;;;;;0.00;0.00;;;22.20;99.90;;;;;;5017385;28;20547;-81
2022/08/19 08:52:50;;;;;;;0.10;0.10;;;22.30;99.90;;;;;;5018075;28;20168;-81
2022/08/19 08:55:22;;;;;;;0.00;0.00;;;22.40;99.90;;;;;;5016858;28;20068;-81
2022/08/19 08:57:54;;;;;;;0.00;0.00;;;22.50;99.90;;;;;;5017777;28;20581;-81
2022/08/19 09:00:40;;;;;;;0.10;0.10;;;22.60;99.90;;;;;;5001577;28;20077;-81
2022/08/19 09:03:20;;;;;;;0.20;0.13;;;22.70;99.90;;;;;;5087448;28;20055;-81
2022/08/19 09:06:22;;;;;;;2.08;0.28;;;22.80;99.90;;;;;;5077926;28;20502;-81
2022/08/19 09:08:59;;;;;;;0.52;0.30;;;22.80;99.90;;;;;;5095054;28;20048;-81
2022/08/19 09:11:54;;;;;;;0.03;0.00;;;22.90;99.90;;;;;;5078600;28;20055;-81
2022/08/19 09:14:29;;;;;;;0.10;0.10;;;23.00;99.90;;;;;;5094940;28;20036;-81
2022/08/19 09:16:56;;;;;;;0.10;0.10;;;23.10;99.90;;;;;;5094665;28;20387;-81
2022/08/19 09:19:21;;;;;;;0.20;0.20;;;23.30;99.90;;;;;;5094444;28;20051;-81
2022/08/19 09:21:48;;;;;;;1.20;0.10;;;23.30;99.90;;;;;;5077429;28;20048;-81
2022/08/19 09:24:13;;;;;;;0.20;0.20;;;23.40;99.90;;;;;;5094694;28;20090;-81
2022/08/19 09:26:39;;;;;;;0.00;0.00;;;23.50;99.90;;;;;;5077784;28;20052;-81
2022/08/19 09:29:06;;;;;;;0.25;0.25;;;23.60;99.90;;;;;;5094459;28;20093;-81
2022/08/19 09:31:32;;;;;;;0.10;0.10;;;23.70;99.90;;;;;;5094310;28;20130;-81
2022/08/19 09:33:59;;;;;;;0.05;0.05;;;23.80;99.90;;;;;;5078176;28;20131;-81
2022/08/19 09:36:28;;;;;;;0.05;0.05;;;23.90;99.90;;;;;;5077834;28;20468;-82
2022/08/19 09:38:55;;;;;;;0.10;0.10;;;24.00;99.90;;;;;;5094371;28;20043;-81
2022/08/19 09:41:23;;;;;;;0.52;0.30;;;24.10;99.90;;;;;;5093863;28;20529;-81
2022/08/19 09:43:51;;;;;;;0.08;0.08;;;24.10;99.90;;;;;;5094078;28;20135;-81
2022/08/19 09:46:20;;;;;;;4.55;0.52;;;24.20;99.90;;;;;;5077189;28;20525;-81
2022/08/19 09:48:48;;;;;;;0.20;0.17;;;24.30;99.90;;;;;;5094182;28;20044;-81
2022/08/19 09:51:19;;;;;;;0.10;0.10;;;24.40;99.90;;;;;;5094419;28;20044;-81
2022/08/19 09:53:46;;;;;;;0.20;0.20;;;24.50;99.90;;;;;;5093910;28;20054;-82
2022/08/19 09:56:12;;;;;;;0.00;0.00;;;24.60;99.90;;;;;;5093647;28;20047;-81
2022/08/19 09:58:39;;;;;;;0.40;0.20;;;24.70;99.90;;;;;;5076720;28;20040;-82
2022/08/19 10:01:06;;;;;;;0.20;0.20;;;24.80;99.90;;;;;;5093569;28;20036;-81
2022/08/19 10:03:34;;;;;;;0.00;0.00;;;24.90;99.90;;;;;;5076822;28;20047;-81
2022/08/19 10:06:03;;;;;;;0.00;0.00;;;25.10;99.90;;;;;;5093942;28;20130;-82
2022/08/19 10:08:32;;;;;;;0.00;0.00;;;25.30;99.90;;;;;;5093683;28;20083;-82
2022/08/19 10:10:59;;;;;;;0.20;0.10;;;25.40;99.90;;;;;;5076532;28;20040;-82
2022/08/19 10:13:28;;;;;;;0.22;0.22;;;25.40;99.90;;;;;;5076776;28;20052;-82
2022/08/19 10:15:57;;;;;;;0.10;0.08;;;25.40;99.90;;;;;;5093985;28;20430;-82
2022/08/19 10:18:25;;;;;;;0.45;0.00;;;25.50;99.90;;;;;;5076516;28;20055;-82
2022/08/19 10:20:54;;;;;;;0.10;0.10;;;25.70;99.90;;;;;;5076376;28;20480;-82
2022/08/19 10:23:20;;;;;;;0.00;0.00;;;25.90;99.90;;;;;;5076488;28;20502;-82
2022/08/19 10:25:47;;;;;;;0.10;0.10;;;26.00;99.90;;;;;;5093452;28;20043;-82
2022/08/19 10:28:13;;;;;;;0.25;0.25;;;26.10;99.90;;;;;;5093413;28;20047;-82
2022/08/19 10:30:40;;;;;;;0.10;0.08;;;26.20;99.90;;;;;;5093422;28;20044;-82
2022/08/19 10:33:06;;;;;;;0.10;0.10;;;26.10;99.90;;;;;;5093245;28;20040;-82
2022/08/19 10:35:32;;;;;;;0.00;0.00;;;26.00;99.90;;;;;;5076447;28;20399;-82
2022/08/19 10:37:59;;;;;;;0.00;0.00;;;26.00;99.90;;;;;;5093156;28;20478;-82
2022/08/19 10:40:26;;;;;;;0.10;0.10;;;26.20;99.90;;;;;;5092460;28;20044;-82
2022/08/19 10:42:53;;;;;;;0.10;0.10;;;26.40;99.80;;;;;;5076415;28;20047;-82
2022/08/19 10:45:22;;;;;;;0.10;0.10;;;26.50;99.90;;;;;;5093385;28;20051;-82
2022/08/19 10:47:47;;;;;;;0.00;0.00;;;26.60;99.90;;;;;;5092781;28;20368;-82
2022/08/19 10:52:57;;;;;;;0.43;0.20;;;26.80;99.90;;;;;;5093200;28;20051;-82
2022/08/19 10:58:14;;;;;;;0.10;0.10;;;26.50;99.90;;;;;;5093018;28;20105;-82
2022/08/19 11:00:41;;;;;;;0.10;0.10;;;26.50;99.70;;;;;;5092704;28;20093;-82
2022/08/19 11:03:06;;;;;;;0.00;0.00;;;26.40;99.90;;;;;;5092836;28;20079;-82
2022/08/19 11:05:32;;;;;;;0.00;0.00;;;26.50;99.90;;;;;;5093589;28;20511;-82
2022/08/19 11:07:58;;;;;;;0.00;0.00;;;26.80;99.90;;;;;;5076446;28;20107;-82
2022/08/19 11:10:23;;;;;;;0.20;0.20;;;27.00;98.60;;;;;;5092572;28;20052;-83
2022/08/19 11:12:52;;;;;;;0.00;0.00;;;27.10;98.40;;;;;;5075896;28;20036;-82
2022/08/19 11:15:18;;;;;;;0.00;0.00;;;27.10;97.50;;;;;;5075804;28;20040;-83
2022/08/19 11:17:44;;;;;;;0.00;0.00;;;26.90;98.60;;;;;;5092638;28;20051;-83
2022/08/19 11:20:14;;;;;;;0.75;0.20;;;27.00;98.10;;;;;;5075881;28;20066;-82
2022/08/19 11:22:40;;;;;;;0.00;0.00;;;27.20;98.60;;;;;;5093207;28;20040;-82
2022/08/19 11:25:07;;;;;;;1.13;0.25;;;27.20;99.00;;;;;;5075797;28;20044;-82
2022/08/19 11:27:33;;;;;;;0.10;0.00;;;27.00;99.20;;;;;;5075741;28;20524;-82
2022/08/19 11:30:00;;;;;;;0.40;0.10;;;26.80;99.30;;;;;;5075790;28;20043;-83
2022/08/19 11:32:26;;;;;;;0.57;0.10;;;26.50;98.00;;;;;;5075167;28;20059;-83
2022/08/19 11:34:52;;;;;;;0.00;0.00;;;26.40;97.60;;;;;;5092501;28;20062;-82
2022/08/19 11:37:17;;;;;;;0.20;0.20;;;26.40;99.00;;;;;;5075816;28;20044;-83
2022/08/19 11:39:43;;;;;;;0.10;0.10;;;26.70;98.30;;;;;;5075655;28;20462;-82
2022/08/19 11:44:53;;;;;;;0.00;0.00;;;27.20;98.70;;;;;;5092442;28;20468;-82
2022/08/19 11:47:19;;;;;;;0.00;0.00;;;27.50;97.60;;;;;;5075774;28;20044;-82
2022/08/19 11:49:46;;;;;;;0.10;0.03;;;27.50;97.20;;;;;;5092417;28;20085;-83
2022/08/19 11:52:12;;;;;;;0.00;0.00;;;27.50;97.30;;;;;;5094818;28;20430;-83
2022/08/19 11:54:38;;;;;;;0.10;0.10;;;27.70;97.80;;;;;;5078829;28;20056;-83
2022/08/19 11:57:04;;;;;;;0.10;0.10;;;28.00;97.10;;;;;;5096195;28;20083;-83
2022/08/19 11:59:30;;;;;;;0.10;0.10;;;28.20;96.10;;;;;;5079171;28;20134;-83
2022/08/19 12:01:56;;;;;;;0.20;0.00;;;28.40;96.00;;;;;;5095818;28;20123;-83
2022/08/19 12:04:22;;;;;;;0.00;0.00;;;28.40;94.10;;;;;;5096177;28;20476;-82
2022/08/19 12:06:49;;;;;;;0.45;0.30;;;28.40;94.00;;;;;;5079112;28;20189;-81
2022/08/19 12:09:17;;;;;;;0.00;0.00;;;28.40;95.00;;;;;;5095791;28;20421;-81
2022/08/19 12:11:43;;;;;;;3.78;0.25;;;28.40;95.40;;;;;;5078445;28;20407;-83
2022/08/19 12:14:13;;;;;;;0.38;0.38;;;28.30;93.60;;;;;;5095572;28;20040;-81
2022/08/19 12:16:38;;;;;;;0.63;0.22;;;28.30;93.80;;;;;;5095928;28;20048;-81
2022/08/19 12:19:05;;;;;;;0.10;0.03;;;28.30;93.10;;;;;;5079252;28;20047;-81
2022/08/19 12:21:34;;;;;;;0.10;0.10;;;28.40;94.30;;;;;;5095633;28;20039;-81
2022/08/19 12:24:01;;;;;;;3.20;0.32;;;28.50;94.70;;;;;;5078997;28;20054;-80
2022/08/19 12:26:29;;;;;;;0.45;0.10;;;28.70;92.00;;;;;;5078468;28;20507;-82
2022/08/19 12:28:54;;;;;;;0.00;0.00;;;28.80;91.40;;;;;;5079065;28;20399;-81
2022/08/19 12:31:21;;;;;;;0.00;0.00;;;28.80;93.40;;;;;;5095654;28;20046;-81
2022/08/19 12:33:47;;;;;;;0.00;0.00;;;28.90;92.20;;;;;;5095755;28;20051;-81
2022/08/19 12:36:15;;;;;;;0.00;0.00;;;28.90;91.10;;;;;;5078543;28;20532;-81
2022/08/19 12:38:41;;;;;;;0.05;0.05;;;29.10;90.50;;;;;;5078621;28;20092;-81
2022/08/19 12:41:13;;;;;;;0.00;0.00;;;29.00;90.60;;;;;;5095138;28;20075;-81
2022/08/19 12:43:38;;;;;;;0.00;0.00;;;28.80;87.10;;;;;;5079191;28;20048;-80
2022/08/19 12:46:05;;;;;;;0.20;0.20;;;28.80;87.00;;;;;;5078438;28;20488;-81
2022/08/19 12:48:32;;;;;;;0.30;0.20;;;28.90;89.70;;;;;;5095371;28;20467;-81
2022/08/19 12:50:58;;;;;;;0.00;0.00;;;28.90;90.00;;;;;;5078329;28;20056;-81
2022/08/19 12:53:24;;;;;;;0.00;0.00;;;28.90;89.30;;;;;;5078282;28;20052;-81
2022/08/19 12:55:59;;;;;;;0.00;0.00;;;28.90;89.40;;;;;;5077813;28;20059;-81
2022/08/19 12:58:28;;;;;;;0.00;0.00;;;28.90;88.40;;;;;;5078418;28;20048;-81
2022/08/19 13:00:54;;;;;;;0.13;0.10;;;28.90;88.30;;;;;;5094917;28;20040;-81
2022/08/19 13:03:22;;;;;;;0.13;0.10;;;28.90;87.90;;;;;;5077817;28;20044;-81
2022/08/19 13:05:50;;;;;;;0.20;0.20;;;28.80;86.80;;;;;;5094900;28;20132;-81
2022/08/19 13:08:16;;;;;;;2.70;0.70;;;28.50;87.50;;;;;;5095497;28;20051;-81
2022/08/19 13:10:42;;;;;;;0.13;0.10;;;28.30;88.30;;;;;;5095478;28;20126;-81
2022/08/19 13:13:09;;;;;;;2.10;0.38;;;28.10;89.40;;;;;;5077643;28;20094;-81
2022/08/19 13:15:39;;;;;;;0.30;0.30;;;28.00;88.40;;;;;;5095257;28;20048;-81